createdAt,value
2018-04-19T03:32:36.279Z,12.70
2018-04-19T03:35:10.207Z,12.70
2018-04-19T03:37:44.855Z,12.70
2018-04-19T03:40:18.692Z,12.60
2018-04-19T03:42:52.475Z,12.70
2018-04-19T03:45:26.318Z,12.70
2018-04-19T03:48:00.929Z,12.70
2018-04-19T03:50:34.746Z,12.70
2018-04-19T03:53:09.361Z,12.70
2018-04-19T03:55:43.848Z,12.70
2018-04-19T03:58:34.759Z,12.70
2018-04-19T04:01:09.515Z,12.60
2018-04-19T04:03:44.144Z,12.50
2018-04-19T04:06:17.944Z,12.50
2018-04-19T04:08:51.848Z,12.50
2018-04-19T04:11:25.668Z,12.50
2018-04-19T04:14:00.178Z,12.60
2018-04-19T04:16:45.990Z,12.50
2018-04-19T04:19:33.359Z,12.40
2018-04-19T04:22:20.921Z,12.30
2018-04-19T04:24:54.767Z,12.30
2018-04-19T04:27:28.488Z,12.30
2018-04-19T04:30:02.328Z,12.30
2018-04-19T04:32:36.095Z,12.30
2018-04-19T04:35:09.782Z,12.30
2018-04-19T04:37:44.363Z,12.30
2018-04-19T04:40:19.406Z,12.30
2018-04-19T04:42:53.096Z,12.30
2018-04-19T04:45:26.964Z,12.30
2018-04-19T04:48:00.731Z,12.30
2018-04-19T04:50:34.578Z,12.30
2018-04-19T04:53:08.413Z,12.40
2018-04-19T04:55:43.066Z,12.40
2018-04-19T04:58:16.859Z,12.40
2018-04-19T05:00:51.507Z,12.50
2018-04-19T05:03:25.334Z,12.50
2018-04-19T05:05:59.926Z,12.60
2018-04-19T05:08:33.723Z,12.60
2018-04-19T05:11:08.936Z,12.60
2018-04-19T05:13:43.568Z,12.60
2018-04-19T05:16:17.509Z,12.60
2018-04-19T05:18:51.306Z,12.60
2018-04-19T05:21:25.092Z,12.70
2018-04-19T05:23:58.875Z,12.80
2018-04-19T05:26:32.734Z,12.80
2018-04-19T05:29:07.241Z,13.00
2018-04-19T05:31:40.969Z,13.00
2018-04-19T05:34:15.610Z,13.20
2018-04-19T05:36:49.393Z,13.20
2018-04-19T05:39:23.520Z,13.30
2018-04-19T05:41:59.231Z,13.30
2018-04-19T05:44:33.704Z,13.60
2018-04-19T05:47:07.471Z,13.60
2018-04-19T05:49:41.328Z,13.70
2018-04-19T05:52:15.231Z,13.80
2018-04-19T05:54:53.487Z,13.90
2018-04-19T05:57:27.156Z,13.90
2018-04-19T06:00:02.946Z,14.00
2018-04-19T06:02:37.582Z,14.10
2018-04-19T06:05:11.431Z,14.10
2018-04-19T06:07:45.192Z,14.20
2018-04-19T06:10:18.980Z,14.30
2018-04-19T06:12:52.845Z,14.30
2018-04-19T06:15:26.718Z,14.40
2018-04-19T06:18:00.559Z,14.50
2018-04-19T06:20:34.410Z,14.60
2018-04-19T06:23:09.981Z,14.80
2018-04-19T06:25:43.822Z,14.80
2018-04-19T06:28:18.006Z,15.00
2018-04-19T06:30:52.527Z,15.20
2018-04-19T06:33:28.771Z,15.20
2018-04-19T06:36:02.698Z,15.30
2018-04-19T06:38:37.998Z,15.50
2018-04-19T06:41:12.533Z,15.60
2018-04-19T06:43:46.366Z,15.60
2018-04-19T06:46:20.145Z,15.80
2018-04-19T06:48:54.029Z,15.90
2018-04-19T06:51:27.782Z,16.10
2018-04-19T06:54:06.626Z,16.30
2018-04-19T06:56:40.322Z,16.30
2018-04-19T06:59:14.339Z,16.40
2018-04-19T07:01:48.831Z,16.80
2018-04-19T07:04:24.638Z,17.00
2018-04-19T07:06:58.402Z,17.00
2018-04-19T07:09:32.271Z,17.20
2018-04-19T07:12:06.135Z,17.40
2018-04-19T07:14:41.238Z,17.70
2018-04-19T07:17:15.096Z,17.90
2018-04-19T07:19:48.967Z,18.20
2018-04-19T07:22:23.607Z,18.30
2018-04-19T07:24:59.079Z,18.50
2018-04-19T07:27:32.851Z,18.50
2018-04-19T07:30:07.731Z,18.70
2018-04-19T07:32:41.489Z,18.70
2018-04-19T07:35:15.300Z,18.80
2018-04-19T07:37:49.612Z,18.80
2018-04-19T07:40:24.119Z,19.00
2018-04-19T07:42:57.851Z,18.90
2018-04-19T07:45:31.574Z,19.10
2018-04-19T07:48:05.415Z,19.20
2018-04-19T07:50:40.070Z,19.50
2018-04-19T07:53:13.791Z,19.40
2018-04-19T07:55:48.390Z,19.60
2018-04-19T07:58:22.201Z,19.60
2018-04-19T08:00:57.139Z,19.90
2018-04-19T08:03:30.843Z,19.90
2018-04-19T08:06:05.014Z,20.00
2018-04-19T08:08:38.828Z,20.10
2018-04-19T08:11:13.449Z,20.30
2018-04-19T08:13:47.879Z,20.50
2018-04-19T08:16:22.719Z,20.60
2018-04-19T08:18:56.464Z,20.50
2018-04-19T08:21:30.279Z,21.00
2018-04-19T08:24:05.034Z,22.00
2018-04-19T08:26:39.607Z,23.60
2018-04-19T08:29:13.451Z,23.60
2018-04-19T08:31:48.090Z,24.40
2018-04-19T08:34:22.355Z,24.40
2018-04-19T08:36:56.328Z,25.40
2018-04-19T08:39:30.231Z,26.00
2018-04-19T08:42:04.044Z,25.90
2018-04-19T08:44:39.473Z,25.90
2018-04-19T08:47:14.011Z,26.20
2018-04-19T08:49:47.903Z,26.20
2018-04-19T08:52:21.963Z,26.10
2018-04-19T08:54:56.073Z,26.10
2018-04-19T08:57:30.014Z,26.30
2018-04-19T09:00:03.738Z,26.30
2018-04-19T09:02:38.324Z,26.80
2018-04-19T09:05:13.076Z,26.80
2018-04-19T09:07:46.814Z,27.10
2018-04-19T09:10:20.615Z,27.80
2018-04-19T09:12:57.419Z,27.90
2018-04-19T09:15:33.489Z,27.90
2018-04-19T09:18:08.120Z,27.90
2018-04-19T09:20:43.943Z,27.90
2018-04-19T09:23:19.201Z,27.80
2018-04-19T09:25:53.712Z,27.80
2018-04-19T09:28:28.847Z,28.20
2018-04-19T09:31:02.695Z,28.20
2018-04-19T09:33:36.654Z,27.80
2018-04-19T09:36:10.887Z,27.40
2018-04-19T09:38:44.692Z,27.60
2018-04-19T09:41:18.570Z,27.90
2018-04-19T09:43:52.408Z,27.40
2018-04-19T09:46:26.279Z,27.90
2018-04-19T09:49:00.636Z,27.80
2018-04-19T09:51:35.549Z,28.10
2018-04-19T09:54:09.419Z,27.70
2018-04-19T09:56:44.220Z,28.10
2018-04-19T09:59:21.973Z,28.00
2018-04-19T10:02:01.422Z,27.50
2018-04-19T10:04:35.320Z,28.30
2018-04-19T10:07:10.306Z,28.80
2018-04-19T10:09:44.126Z,28.70
2018-04-19T10:12:17.895Z,28.60
2018-04-19T10:14:51.595Z,28.50
2018-04-19T10:17:25.485Z,28.40
2018-04-19T10:19:59.357Z,29.00
2018-04-19T10:22:33.910Z,28.90
2018-04-19T10:25:09.707Z,28.90
2018-04-19T10:27:45.624Z,28.70
2018-04-19T10:30:19.484Z,28.60
2018-04-19T10:32:53.352Z,27.90
2018-04-19T10:35:28.725Z,28.50
2018-04-19T10:38:02.355Z,28.40
2018-04-19T10:40:38.130Z,28.10
2018-04-19T10:43:12.149Z,28.20
2018-04-19T10:45:45.927Z,28.30
2018-04-19T10:48:19.695Z,28.20
2018-04-19T10:50:53.407Z,28.10
2018-04-19T10:53:29.851Z,27.70
2018-04-19T10:56:03.611Z,27.20
2018-04-19T10:58:37.358Z,28.10
2018-04-19T11:01:10.992Z,28.40
2018-04-19T11:03:44.803Z,28.30
2018-04-19T11:06:18.603Z,28.60
2018-04-19T11:08:52.374Z,28.10
2018-04-19T11:11:26.915Z,28.40
2018-04-19T11:14:00.662Z,28.30
2018-04-19T11:16:34.559Z,28.20
2018-04-19T11:19:08.274Z,28.30
2018-04-19T11:21:42.033Z,28.70
2018-04-19T11:24:15.622Z,28.20
2018-04-19T11:26:49.478Z,29.10
2018-04-19T11:29:23.279Z,29.00
2018-04-19T11:31:57.877Z,27.80
2018-04-19T11:34:31.722Z,27.80
2018-04-19T11:37:06.585Z,27.70
2018-04-19T11:39:40.494Z,27.30
2018-04-19T11:42:14.451Z,26.90
2018-04-19T11:44:48.944Z,26.90
2018-04-19T11:47:23.828Z,27.20
2018-04-19T11:49:57.668Z,27.20
2018-04-19T11:52:31.444Z,27.10
2018-04-19T11:55:06.008Z,26.90
2018-04-19T11:57:39.778Z,26.90
2018-04-19T12:00:14.758Z,27.10
2018-04-19T12:02:48.574Z,27.10
2018-04-19T12:05:22.403Z,27.10
2018-04-19T12:07:56.229Z,26.50
2018-04-19T12:10:29.991Z,26.50
2018-04-19T12:13:04.628Z,26.30
2018-04-19T12:15:38.430Z,26.30
2018-04-19T12:18:13.042Z,26.50
2018-04-19T12:20:47.015Z,26.50
2018-04-19T12:23:22.395Z,26.50
2018-04-19T12:25:56.787Z,26.50
2018-04-19T12:28:30.563Z,26.50
2018-04-19T12:31:04.303Z,26.70
2018-04-19T12:33:39.550Z,26.40
2018-04-19T12:36:14.680Z,26.30
2018-04-19T12:38:48.591Z,26.30
2018-04-19T12:41:22.338Z,26.50
2018-04-19T12:43:57.072Z,26.40
2018-04-19T12:46:30.864Z,26.40
2018-04-19T12:49:05.471Z,26.50
2018-04-19T12:51:40.094Z,26.40
2018-04-19T12:54:13.883Z,26.30
2018-04-19T12:56:47.742Z,26.60
2018-04-19T12:59:22.440Z,26.70
2018-04-19T13:01:56.244Z,26.70
2018-04-19T13:04:30.076Z,26.80
2018-04-19T13:07:03.836Z,26.60
2018-04-19T13:09:37.874Z,26.60
2018-04-19T13:12:11.695Z,26.70
2018-04-19T13:14:45.491Z,26.80
2018-04-19T13:17:19.404Z,26.50
2018-04-19T13:19:54.341Z,26.60
2018-04-19T13:22:28.191Z,26.60
2018-04-19T13:25:02.344Z,26.90
2018-04-19T13:27:36.159Z,27.00
2018-04-19T13:30:09.999Z,26.80
2018-04-19T13:32:44.408Z,26.70
2018-04-19T13:35:19.118Z,26.70
2018-04-19T13:37:54.434Z,26.70
2018-04-19T13:40:28.284Z,26.70
2018-04-19T13:43:03.136Z,26.80
2018-04-19T13:45:37.047Z,26.50
2018-04-19T13:48:11.605Z,26.50
2018-04-19T13:50:45.334Z,26.50
2018-04-19T13:53:19.178Z,26.60
2018-04-19T13:55:52.987Z,26.60
2018-04-19T13:58:27.446Z,26.80
2018-04-19T14:01:05.154Z,26.80
2018-04-19T14:03:40.783Z,26.90
2018-04-19T14:06:14.493Z,26.70
2018-04-19T14:08:48.329Z,26.60
2018-04-19T14:11:22.002Z,26.80
2018-04-19T14:13:55.838Z,26.90
2018-04-19T14:16:29.432Z,26.90
2018-04-19T14:19:04.016Z,26.90
2018-04-19T14:21:39.455Z,26.90
2018-04-19T14:24:13.114Z,26.90
2018-04-19T14:26:47.019Z,26.80
2018-04-19T14:29:21.611Z,26.90
2018-04-19T14:31:56.490Z,26.90
2018-04-19T14:34:30.236Z,26.90
2018-04-19T14:37:05.111Z,26.90
2018-04-19T14:39:38.910Z,26.90
2018-04-19T14:42:12.692Z,26.80
2018-04-19T14:44:47.437Z,26.80
2018-04-19T14:47:21.268Z,26.80
2018-04-19T14:49:55.004Z,27.00
2018-04-19T14:52:28.755Z,27.00
2018-04-19T14:55:02.547Z,27.00
2018-04-19T14:57:36.397Z,26.90
2018-04-19T15:00:10.182Z,26.70
2018-04-19T15:02:44.839Z,26.60
2018-04-19T15:05:19.506Z,26.70
2018-04-19T15:07:53.330Z,26.70
2018-04-19T15:10:30.806Z,26.80
2018-04-19T15:13:04.631Z,26.70
2018-04-19T15:15:41.459Z,26.80
2018-04-19T15:18:15.253Z,26.80
2018-04-19T15:20:50.876Z,26.60
2018-04-19T15:23:24.667Z,26.60
2018-04-19T15:25:59.514Z,26.60
2018-04-19T15:28:33.363Z,26.70
2018-04-19T15:31:08.854Z,26.50
2018-04-19T15:33:42.659Z,26.50
2018-04-19T15:36:16.475Z,26.50
2018-04-19T15:38:50.315Z,26.50
2018-04-19T15:41:25.011Z,26.60
2018-04-19T15:43:59.519Z,26.50
2018-04-19T15:46:34.037Z,26.40
2018-04-19T15:49:07.763Z,26.30
2018-04-19T15:51:42.400Z,26.40
2018-04-19T15:54:16.169Z,26.40
2018-04-19T15:56:50.022Z,26.40
2018-04-19T15:59:23.873Z,26.30
2018-04-19T16:01:57.744Z,26.20
2018-04-19T16:04:31.463Z,26.20
2018-04-19T16:07:05.622Z,26.20
2018-04-19T16:09:39.602Z,26.20
2018-04-19T16:12:14.167Z,26.20
2018-04-19T16:14:48.746Z,26.20
2018-04-19T16:17:23.204Z,26.20
2018-04-19T16:19:56.954Z,26.20
2018-04-19T16:22:30.914Z,26.20
2018-04-19T16:25:05.512Z,26.10
2018-04-19T16:27:40.406Z,26.10
2018-04-19T16:30:15.025Z,26.10
2018-04-19T16:32:49.748Z,26.00
2018-04-19T16:35:23.406Z,26.00
2018-04-19T16:37:57.279Z,25.90
2018-04-19T16:40:31.064Z,25.90
2018-04-19T16:43:05.669Z,25.80
2018-04-19T16:45:39.565Z,25.80
2018-04-19T16:48:16.112Z,25.80
2018-04-19T16:50:49.840Z,25.80
2018-04-19T16:53:23.674Z,25.70
2018-04-19T16:55:58.256Z,25.70
2018-04-19T16:58:32.679Z,25.70
2018-04-19T17:01:06.763Z,25.60
2018-04-19T17:03:43.843Z,25.60
2018-04-19T17:06:18.396Z,25.50
2018-04-19T17:08:52.919Z,25.40
2018-04-19T17:11:26.904Z,25.40
2018-04-19T17:14:01.975Z,25.30
2018-04-19T17:16:35.787Z,25.30
2018-04-19T17:19:09.607Z,25.20
2018-04-19T17:21:43.489Z,25.20
2018-04-19T17:24:17.275Z,25.10
2018-04-19T17:26:51.851Z,25.00
2018-04-19T17:29:25.669Z,24.90
2018-04-19T17:31:59.539Z,24.90
2018-04-19T17:34:34.169Z,24.80
2018-04-19T17:37:07.919Z,24.80
2018-04-19T17:39:42.571Z,24.60
2018-04-19T17:42:16.435Z,24.60
2018-04-19T17:44:55.111Z,24.50
2018-04-19T17:47:29.613Z,24.40
2018-04-19T17:50:03.515Z,24.40
2018-04-19T17:52:37.409Z,24.40
2018-04-19T17:55:11.967Z,24.20
2018-04-19T17:57:46.142Z,24.20
2018-04-19T18:00:20.008Z,24.10
2018-04-19T18:02:53.908Z,24.10
2018-04-19T18:05:27.786Z,24.10
2018-04-19T18:08:02.573Z,24.00
2018-04-19T18:10:36.349Z,23.90
2018-04-19T18:13:10.227Z,23.80
2018-04-19T18:15:44.032Z,23.70
2018-04-19T18:18:18.687Z,23.50
2018-04-19T18:20:52.328Z,23.50
2018-04-19T18:23:26.933Z,23.30
2018-04-19T18:26:01.570Z,23.10
2018-04-19T18:28:35.468Z,23.10
2018-04-19T18:31:09.363Z,23.00
2018-04-19T18:33:43.885Z,22.70
2018-04-19T18:36:18.471Z,22.70
2018-04-19T18:38:52.262Z,22.60
2018-04-19T18:41:26.854Z,22.70
2018-04-19T18:44:01.687Z,22.80
2018-04-19T18:46:37.277Z,22.70
2018-04-19T18:49:11.107Z,22.70
2018-04-19T18:51:44.996Z,22.60
2018-04-19T18:54:18.791Z,22.60
2018-04-19T18:56:52.602Z,22.60
2018-04-19T18:59:27.250Z,22.60
2018-04-19T19:02:01.797Z,22.60
2018-04-19T19:04:35.612Z,22.60
2018-04-19T19:07:09.347Z,22.50
2018-04-19T19:09:43.138Z,22.40
2018-04-19T19:12:17.749Z,22.40
2018-04-19T19:14:51.607Z,22.30
2018-04-19T19:17:37.394Z,22.30
2018-04-19T19:20:12.839Z,22.30
2018-04-19T19:22:46.513Z,22.20
2018-04-19T19:25:21.083Z,22.20
2018-04-19T19:27:54.919Z,22.20
2018-04-19T19:30:29.420Z,21.90
2018-04-19T19:33:06.432Z,21.80
2018-04-19T19:35:41.192Z,21.80
2018-04-19T19:38:16.069Z,21.50
2018-04-19T19:40:51.395Z,21.50
2018-04-19T19:43:25.919Z,21.50
2018-04-19T19:46:00.552Z,21.50
2018-04-19T19:48:34.451Z,21.40
2018-04-19T19:51:08.284Z,21.50
2018-04-19T19:53:43.003Z,21.30
2018-04-19T19:56:16.910Z,21.30
2018-04-19T19:58:51.547Z,21.20
2018-04-19T20:01:25.366Z,21.10
2018-04-19T20:04:00.191Z,21.10
2018-04-19T20:06:34.040Z,21.00
2018-04-19T20:09:08.620Z,20.90
2018-04-19T20:11:42.368Z,20.80
2018-04-19T20:14:17.054Z,20.60
2018-04-19T20:16:50.824Z,20.60
2018-04-19T20:19:26.104Z,20.40
2018-04-19T20:21:59.974Z,20.40
2018-04-19T20:24:34.407Z,20.40
2018-04-19T20:27:08.305Z,20.30
2018-04-19T20:29:42.127Z,20.20
2018-04-19T20:32:15.871Z,20.10
2018-04-19T20:34:50.376Z,20.00
2018-04-19T20:37:24.947Z,19.90
2018-04-19T20:39:58.723Z,19.90
2018-04-19T20:42:32.566Z,19.80
2018-04-19T20:45:06.158Z,19.70
2018-04-19T20:47:40.056Z,19.70
2018-04-19T20:50:13.874Z,19.60
2018-04-19T20:52:47.798Z,19.50
2018-04-19T20:55:22.271Z,19.30
2018-04-19T20:57:56.855Z,19.20
